Time;durP1;ratioP1;P1;durP2;ratioP2;P2;SDS_P1;SDS_P2;PMS_P1;PMS_P2;Temp;Humidity;BMP_temperature;BMP_pressure;BME280_temperature;BME280_humidity;BME280_pressure;Samples;Min_cycle;Max_cycle;Signal;HPM_P1;HPM_P2
2022/03/28 00:00:41;;;;;;;40.70;16.97;;;;;;;1.25;50.52;101626.77;1448321;89;21428;-79
2022/03/28 00:03:07;;;;;;;43.75;17.60;;;;;;;1.24;50.64;101632.91;1445416;89;21399;-79
2022/03/28 00:05:33;;;;;;;45.07;18.27;;;;;;;1.22;50.80;101626.89;1435483;90;21570;-79
2022/03/28 00:07:59;;;;;;;41.37;19.00;;;;;;;1.21;49.96;101639.55;1438302;90;21413;-80
2022/03/28 00:10:26;;;;;;;48.28;19.82;;;;;;;1.20;49.20;101643.05;1434790;90;21428;-78
2022/03/28 00:12:52;;;;;;;42.00;18.02;;;;;;;1.15;49.04;101637.60;1435496;89;21434;-78
2022/03/28 00:15:18;;;;;;;37.23;16.97;;;;;;;1.13;49.42;101635.07;1434221;89;21413;-78
2022/03/28 00:17:44;;;;;;;33.80;16.37;;;;;;;1.12;49.95;101634.23;1433061;90;21457;-77
2022/03/28 00:20:11;;;;;;;38.23;19.17;;;;;;;1.12;50.86;101628.14;1433347;90;21436;-77
2022/03/28 00:22:39;;;;;;;38.02;15.68;;;;;;;1.10;51.43;101631.28;1445908;89;21383;-78
2022/03/28 00:25:07;;;;;;;35.40;17.25;;;;;;;1.03;53.89;101622.81;1428798;90;22248;-78
2022/03/28 00:27:34;;;;;;;37.23;18.00;;;;;;;1.00;53.82;101622.09;1434634;90;21406;-78
2022/03/28 00:30:00;;;;;;;38.35;18.67;;;;;;;0.96;53.91;101623.12;1439273;90;22271;-77
2022/03/28 00:32:26;;;;;;;44.35;19.87;;;;;;;0.93;51.98;101623.23;1419309;90;21420;-77
2022/03/28 00:34:53;;;;;;;51.33;20.27;;;;;;;0.88;51.47;101620.33;1435165;89;21404;-77
2022/03/28 00:37:19;;;;;;;48.73;21.40;;;;;;;0.86;51.25;101622.16;1437921;89;21480;-77
2022/03/28 00:39:45;;;;;;;45.33;20.32;;;;;;;0.82;51.97;101620.55;1437328;89;21427;-77
2022/03/28 00:42:12;;;;;;;46.88;21.68;;;;;;;0.84;51.62;101612.69;1438417;90;21339;-77
2022/03/28 00:44:39;;;;;;;43.40;18.80;;;;;;;0.82;52.76;101611.43;1437694;90;21508;-77
2022/03/28 00:47:05;;;;;;;41.45;19.92;;;;;;;0.80;52.43;101609.78;1431999;89;22388;-78
2022/03/28 00:49:31;;;;;;;47.98;20.30;;;;;;;0.77;51.72;101605.53;1436201;90;21465;-77
2022/03/28 00:51:58;;;;;;;44.08;19.82;;;;;;;0.76;51.66;101612.96;1431819;90;21324;-77
2022/03/28 00:54:24;;;;;;;41.20;19.60;;;;;;;0.75;51.35;101616.48;1444242;89;21348;-77
2022/03/28 00:56:50;;;;;;;45.08;23.00;;;;;;;0.70;52.61;101609.28;1448065;90;21370;-77
2022/03/28 00:59:18;;;;;;;48.63;21.77;;;;;;;0.64;53.22;101609.50;1450013;90;21349;-77
2022/03/28 01:01:47;;;;;;;41.25;18.80;;;;;;;0.55;52.46;101608.54;1444816;90;21393;-77
2022/03/28 01:04:14;;;;;;;47.10;19.23;;;;;;;0.51;53.36;101606.92;1449186;90;22335;-77
2022/03/28 01:06:40;;;;;;;34.03;16.75;;;;;;;0.52;53.15;101607.31;1445831;88;21420;-77
2022/03/28 01:09:06;;;;;;;41.28;19.48;;;;;;;0.52;52.76;101606.89;1438496;90;22285;-77
2022/03/28 01:11:34;;;;;;;37.75;16.73;;;;;;;0.54;54.10;101613.33;1437277;90;21465;-77
2022/03/28 01:14:01;;;;;;;47.78;18.12;;;;;;;0.52;53.93;101617.31;1438812;90;21509;-77
2022/03/28 01:19:17;;;;;;;35.00;16.55;;;;;;;0.47;54.39;101614.47;1425305;91;22466;-77
2022/03/28 01:21:43;;;;;;;43.00;21.48;;;;;;;0.43;53.76;101605.45;1443726;90;21362;-77
2022/03/28 01:24:09;;;;;;;40.43;17.57;;;;;;;0.41;52.86;101607.26;1432245;89;21288;-77
2022/03/28 01:26:35;;;;;;;43.23;20.20;;;;;;;0.39;53.01;101603.84;1439408;90;21413;-77
2022/03/28 01:29:01;;;;;;;53.30;22.43;;;;;;;0.37;52.18;101611.31;1434961;91;21377;-77
2022/03/28 01:31:27;;;;;;;42.80;19.30;;;;;;;0.35;52.93;101610.08;1426729;90;21430;-77
2022/03/28 01:33:53;;;;;;;46.57;20.13;;;;;;;0.34;52.20;101602.30;1428146;90;22295;-77
2022/03/28 01:36:25;;;;;;;50.87;22.47;;;;;;;0.32;53.22;101605.44;1433616;90;21361;-77
2022/03/28 01:38:51;;;;;;;45.95;21.52;;;;;;;0.29;53.75;101601.18;1442990;90;21391;-80
2022/03/28 01:41:16;;;;;;;52.83;20.92;;;;;;;0.26;53.57;101612.13;1432263;90;21399;-80
2022/03/28 01:43:42;;;;;;;54.20;24.67;;;;;;;0.18;53.21;101614.56;1438030;90;22382;-80
2022/03/28 01:46:08;;;;;;;60.00;27.50;;;;;;;0.15;52.04;101608.61;1441930;89;22612;-79
2022/03/28 01:48:34;;;;;;;54.77;26.17;;;;;;;0.12;52.97;101612.63;1437910;89;21452;-80
2022/03/28 01:51:00;;;;;;;55.93;23.80;;;;;;;0.09;52.59;101607.52;1434770;89;21382;-77
2022/03/28 01:53:26;;;;;;;55.23;25.60;;;;;;;0.07;52.33;101605.41;1442494;89;21450;-77
2022/03/28 01:55:52;;;;;;;54.00;24.13;;;;;;;0.08;53.22;101602.74;1439786;90;21599;-77
2022/03/28 01:58:18;;;;;;;57.70;26.00;;;;;;;0.10;53.56;101595.73;1438902;90;21495;-77
2022/03/28 02:00:44;;;;;;;53.57;25.83;;;;;;;0.10;53.18;101593.59;1443318;90;21561;-77
2022/03/28 02:03:10;;;;;;;52.78;23.62;;;;;;;0.07;52.06;101591.09;1443713;90;21428;-77
2022/03/28 02:05:36;;;;;;;49.40;22.93;;;;;;;0.10;52.83;101587.09;1458338;89;21465;-78
2022/03/28 02:08:03;;;;;;;52.67;25.10;;;;;;;0.10;52.72;101587.09;1456664;88;22241;-77
2022/03/28 02:10:29;;;;;;;55.25;25.32;;;;;;;0.10;53.24;101587.09;1462424;89;22294;-78
2022/03/28 02:12:55;;;;;;;57.80;26.68;;;;;;;0.07;52.11;101588.49;1446176;89;21398;-79
2022/03/28 02:15:22;;;;;;;56.28;26.12;;;;;;;0.05;52.46;101579.42;1443567;89;21495;-79
2022/03/28 02:17:48;;;;;;;74.77;29.15;;;;;;;0.05;51.48;101574.67;1442929;89;21421;-78
2022/03/28 02:20:16;;;;;;;60.85;25.32;;;;;;;0.05;51.04;101573.37;1445784;89;21524;-77
2022/03/28 02:22:45;;;;;;;54.75;26.37;;;;;;;0.03;51.73;101568.66;1449443;90;21335;-77
2022/03/28 02:25:15;;;;;;;56.42;23.52;;;;;;;0.03;51.66;101569.95;1440030;90;21478;-77
2022/03/28 02:27:43;;;;;;;56.33;24.52;;;;;;;0.03;51.66;101564.75;1459607;89;21391;-77
2022/03/28 02:30:12;;;;;;;52.13;24.10;;;;;;;0.02;51.41;101557.86;1458778;89;21413;-78
2022/03/28 02:32:38;;;;;;;56.73;20.62;;;;;;;0.02;51.59;101555.25;1458522;89;22425;-78
2022/03/28 02:35:07;;;;;;;48.58;22.20;;;;;;;-0.01;51.77;101554.45;1455077;89;21376;-79
2022/03/28 02:37:33;;;;;;;54.95;21.50;;;;;;;0.02;51.27;101548.30;1466142;89;21411;-79
2022/03/28 02:39:59;;;;;;;42.30;20.12;;;;;;;0.02;51.12;101540.94;1446048;89;22235;-79
2022/03/28 02:42:25;;;;;;;42.05;18.77;;;;;;;0.02;51.83;101540.94;1431162;90;22404;-79
2022/03/28 02:44:51;;;;;;;33.93;18.53;;;;;;;-0.04;50.98;101538.94;1453088;88;21436;-79
2022/03/28 02:47:21;;;;;;;36.15;17.07;;;;;;;-0.04;50.69;101542.00;1442167;90;21436;-77
2022/03/28 02:49:49;;;;;;;45.90;20.55;;;;;;;-0.05;50.00;101545.52;1437153;90;21398;-78
2022/03/28 02:52:15;;;;;;;48.35;21.73;;;;;;;-0.09;50.71;101534.34;1447395;90;21383;-77
2022/03/28 02:54:41;;;;;;;48.05;20.77;;;;;;;-0.12;50.55;101537.05;1453354;88;21486;-79
2022/03/28 02:57:07;;;;;;;55.77;22.47;;;;;;;-0.16;51.58;101534.16;1441503;90;21346;-79
2022/03/28 02:59:33;;;;;;;62.87;27.77;;;;;;;-0.20;51.92;101529.98;1444945;90;21443;-79
2022/03/28 03:02:00;;;;;;;57.13;23.97;;;;;;;-0.19;50.31;101534.27;1446799;90;22462;-79
2022/03/28 03:04:26;;;;;;;67.32;28.02;;;;;;;-0.17;50.03;101532.89;1444421;90;23416;-79
2022/03/28 03:06:52;;;;;;;65.63;24.20;;;;;;;-0.16;49.91;101528.95;1439559;90;21398;-78
2022/03/28 03:09:17;;;;;;;62.35;25.50;;;;;;;-0.23;49.81;101517.07;1439128;90;23251;-79
2022/03/28 03:11:43;;;;;;;51.07;22.73;;;;;;;-0.18;49.78;101524.24;1456134;88;21294;-79
2022/03/28 03:14:09;;;;;;;58.37;23.57;;;;;;;-0.19;49.61;101517.81;1475908;88;21420;-79
2022/03/28 03:16:35;;;;;;;48.43;21.27;;;;;;;-0.21;48.49;101516.55;1450839;88;21411;-79
2022/03/28 03:19:01;;;;;;;40.73;17.77;;;;;;;-0.24;47.91;101514.05;1481759;88;21338;-79
2022/03/28 03:21:27;;;;;;;38.00;17.60;;;;;;;-0.25;47.98;101505.40;1473405;88;22322;-79
2022/03/28 03:23:53;;;;;;;35.50;16.40;;;;;;;-0.23;47.36;101509.27;1450051;88;22550;-79
2022/03/28 03:26:19;;;;;;;40.80;16.57;;;;;;;-0.22;47.79;101512.25;1446602;89;21317;-79
2022/03/28 03:28:45;;;;;;;39.42;17.48;;;;;;;-0.23;48.12;101513.17;1464620;88;21346;-79
2022/03/28 03:31:11;;;;;;;36.53;16.63;;;;;;;-0.30;48.63;101528.57;1442733;88;21385;-80
2022/03/28 03:33:37;;;;;;;33.53;16.63;;;;;;;-0.42;48.66;101534.19;1461178;89;21787;-79
2022/03/28 03:36:03;;;;;;;33.67;16.70;;;;;;;-0.49;48.52;101530.48;1443391;90;21413;-80
2022/03/28 03:38:30;;;;;;;39.92;18.37;;;;;;;-0.51;49.21;101529.68;1443047;89;21457;-79
2022/03/28 03:40:56;;;;;;;38.13;17.15;;;;;;;-0.59;48.39;101526.47;1441828;89;21340;-79
2022/03/28 03:43:24;;;;;;;38.05;18.12;;;;;;;-0.63;48.33;101526.19;1434670;88;21316;-79
2022/03/28 03:45:50;;;;;;;36.83;17.15;;;;;;;-0.63;49.14;101527.91;1458869;89;22413;-79
2022/03/28 03:48:16;;;;;;;52.20;24.03;;;;;;;-0.63;49.94;101526.61;1435760;90;21495;-79
2022/03/28 03:50:42;;;;;;;57.17;25.13;;;;;;;-0.70;50.17;101535.06;1437702;89;21407;-79
2022/03/28 03:53:09;;;;;;;58.53;24.20;;;;;;;-0.76;49.57;101544.36;1449777;89;21549;-79
2022/03/28 03:55:35;;;;;;;49.08;23.60;;;;;;;-0.81;50.33;101547.55;1454982;89;21340;-79
2022/03/28 03:58:01;;;;;;;62.50;26.52;;;;;;;-0.93;50.08;101541.82;1441808;89;21428;-78
2022/03/28 04:00:26;;;;;;;50.90;23.13;;;;;;;-0.95;49.68;101540.16;1454552;89;21423;-79
2022/03/28 04:02:52;;;;;;;47.33;21.50;;;;;;;-0.92;49.46;101543.55;1441551;90;21378;-79
2022/03/28 04:05:19;;;;;;;52.43;25.37;;;;;;;-0.92;51.44;101542.23;1447354;90;22504;-78
2022/03/28 04:07:45;;;;;;;51.00;24.10;;;;;;;-0.94;50.14;101541.43;1442783;90;21836;-79
2022/03/28 04:10:11;;;;;;;48.40;23.50;;;;;;;-0.93;52.59;101540.52;1446285;89;21392;-79
2022/03/28 04:12:38;;;;;;;54.80;23.70;;;;;;;-0.98;53.57;101537.66;1449395;90;21320;-79
2022/03/28 04:15:06;;;;;;;54.48;23.95;;;;;;;-1.08;51.87;101536.25;1449328;89;21386;-79
2022/03/28 04:17:44;;;;;;;47.10;21.45;;;;;;;-1.07;51.89;101532.75;1447621;89;21445;-79
2022/03/28 04:20:15;;;;;;;52.30;23.15;;;;;;;-1.09;53.41;101536.70;1446098;90;21436;-79
2022/03/28 04:22:43;;;;;;;47.20;21.15;;;;;;;-1.15;52.12;101537.73;1452895;89;21430;-80
2022/03/28 04:25:10;;;;;;;57.70;24.02;;;;;;;-1.12;52.28;101527.70;1451372;90;22331;-80
2022/03/28 04:27:37;;;;;;;60.10;25.72;;;;;;;-1.08;51.81;101533.66;1448885;89;22391;-79
2022/03/28 04:30:12;;;;;;;52.75;23.47;;;;;;;-1.08;52.21;101528.45;1447291;90;21327;-79
2022/03/28 04:32:39;;;;;;;54.83;24.75;;;;;;;-1.08;52.54;101531.90;1442631;89;21355;-79
2022/03/28 04:35:07;;;;;;;50.33;21.80;;;;;;;-1.03;52.10;101532.63;1454644;89;21445;-80
2022/03/28 04:37:35;;;;;;;51.95;23.02;;;;;;;-1.03;54.41;101535.22;1443167;89;22229;-80
2022/03/28 04:40:04;;;;;;;52.78;23.38;;;;;;;-1.02;52.76;101538.20;1438579;89;21428;-79
2022/03/28 04:42:30;;;;;;;51.33;25.00;;;;;;;-1.05;53.58;101539.59;1441389;89;21458;-80
2022/03/28 04:44:56;;;;;;;55.17;24.02;;;;;;;-1.09;52.10;101541.03;1457132;89;21287;-80
2022/03/28 04:47:22;;;;;;;46.93;19.70;;;;;;;-1.15;52.58;101541.64;1448658;88;21368;-80
2022/03/28 04:49:48;;;;;;;45.70;22.40;;;;;;;-1.47;51.33;101554.23;1435874;90;21413;-80
2022/03/28 04:52:13;;;;;;;45.50;18.92;;;;;;;-1.49;52.03;101548.25;1432706;90;21361;-81
2022/03/28 04:54:40;;;;;;;47.03;19.80;;;;;;;-1.58;51.80;101551.11;1435775;90;21458;-81
2022/03/28 04:57:06;;;;;;;69.77;21.23;;;;;;;-1.57;52.38;101547.61;1446666;90;21310;-81
2022/03/28 04:59:32;;;;;;;62.38;25.70;;;;;;;-1.47;51.30;101537.35;1432947;88;21823;-81
2022/03/28 05:01:59;;;;;;;82.10;28.50;;;;;;;-1.37;50.46;101521.08;1455200;88;21352;-79
2022/03/28 05:04:26;;;;;;;100.95;29.80;;;;;;;-1.25;50.70;101518.56;1431412;89;21574;-79
2022/03/28 05:06:52;;;;;;;128.50;30.82;;;;;;;-1.06;50.79;101516.28;1443207;89;21384;-79
2022/03/28 05:09:19;;;;;;;104.60;32.03;;;;;;;-0.88;50.72;101513.10;1435034;88;21310;-79
2022/03/28 05:11:45;;;;;;;101.05;45.90;;;;;;;-0.66;50.17;101517.61;1445844;89;21427;-79
2022/03/28 05:14:11;;;;;;;94.55;47.80;;;;;;;-0.45;52.46;101513.02;1432909;90;22920;-79
2022/03/28 05:16:37;;;;;;;88.62;40.15;;;;;;;-0.24;52.83;101524.45;1444073;88;21419;-79
2022/03/28 05:19:04;;;;;;;88.07;36.80;;;;;;;-0.08;52.10;101528.25;1441266;89;21310;-78
2022/03/28 05:21:31;;;;;;;91.32;36.98;;;;;;;0.08;52.56;101522.50;1457844;89;21405;-78
2022/03/28 05:23:57;;;;;;;97.82;36.75;;;;;;;0.23;52.06;101531.06;1457618;88;21412;-78
2022/03/28 05:26:24;;;;;;;85.60;31.62;;;;;;;0.36;51.99;101529.73;1460932;88;21442;-78
2022/03/28 05:28:50;;;;;;;84.80;32.30;;;;;;;0.48;51.34;101532.34;1463025;88;22425;-78
2022/03/28 05:31:16;;;;;;;77.70;27.37;;;;;;;0.60;50.47;101538.39;1472254;88;21587;-78
2022/03/28 05:33:41;;;;;;;69.83;28.80;;;;;;;0.71;49.37;101531.48;1458767;89;21890;-78
2022/03/28 05:36:08;;;;;;;66.03;28.47;;;;;;;0.84;49.16;101532.73;1454985;89;21338;-78
2022/03/28 05:38:34;;;;;;;83.72;30.50;;;;;;;1.03;49.10;101526.80;1463061;89;21390;-78
2022/03/28 05:41:00;;;;;;;60.35;27.05;;;;;;;1.22;48.44;101526.95;1462616;89;21464;-78
2022/03/28 05:43:26;;;;;;;60.20;26.07;;;;;;;1.38;48.81;101527.17;1464731;88;21392;-78
2022/03/28 05:45:53;;;;;;;141.82;54.33;;;;;;;1.52;49.03;101523.55;1468215;88;21449;-78
2022/03/28 05:48:19;;;;;;;413.07;182.27;;;;;;;1.67;48.48;101533.80;1456513;88;21361;-78
2022/03/28 05:50:47;;;;;;;404.75;183.52;;;;;;;1.79;48.08;101524.18;1467601;88;21390;-78
2022/03/28 05:53:13;;;;;;;377.00;173.38;;;;;;;1.91;47.65;101526.27;1464977;89;21486;-78
2022/03/28 05:55:43;;;;;;;191.82;76.37;;;;;;;2.00;47.53;101523.25;1467975;88;21486;-79
2022/03/28 05:58:11;;;;;;;60.05;24.43;;;;;;;2.08;47.20;101521.63;1467477;89;22222;-79
2022/03/28 06:00:39;;;;;;;57.10;24.95;;;;;;;2.22;46.78;101515.34;1461634;89;21419;-79
2022/03/28 06:03:05;;;;;;;135.95;57.48;;;;;;;2.36;46.47;101515.17;1460834;88;21405;-79
2022/03/28 06:05:32;;;;;;;413.12;190.45;;;;;;;2.51;46.22;101519.73;1462026;89;21420;-79
2022/03/28 06:08:00;;;;;;;158.65;69.60;;;;;;;2.66;46.19;101517.72;1461652;88;21405;-79
2022/03/28 06:10:26;;;;;;;77.08;31.55;;;;;;;2.80;46.09;101524.09;1464877;89;21391;-79
2022/03/28 06:12:52;;;;;;;66.28;31.37;;;;;;;2.93;46.00;101516.92;1458878;89;21361;-79
2022/03/28 06:15:18;;;;;;;100.18;48.02;;;;;;;3.07;45.24;101514.94;1463187;89;21317;-78
2022/03/28 06:17:44;;;;;;;72.53;38.42;;;;;;;3.23;45.56;101511.61;1461023;89;21443;-78
2022/03/28 06:20:12;;;;;;;77.40;41.17;;;;;;;3.31;44.88;101498.98;1458979;88;21405;-78
2022/03/28 06:22:38;;;;;;;43.03;20.73;;;;;;;3.42;44.10;101497.16;1455264;89;21479;-77
2022/03/28 06:25:07;;;;;;;38.37;17.37;;;;;;;3.49;43.64;101496.78;1462703;89;21744;-77
2022/03/28 06:27:35;;;;;;;33.70;14.90;;;;;;;3.60;44.04;101491.87;1456532;88;21620;-76
2022/03/28 06:30:01;;;;;;;23.73;11.23;;;;;;;3.74;44.03;101495.11;1462320;88;21605;-76
2022/03/28 06:32:27;;;;;;;17.20;9.57;;;;;;;3.88;43.64;101491.76;1458305;88;21694;-77
2022/03/28 06:35:05;;;;;;;25.83;12.83;;;;;;;4.01;43.13;101487.59;1462036;89;21801;-77
2022/03/28 06:37:35;;;;;;;22.70;11.00;;;;;;;4.18;42.69;101489.80;1428250;89;22360;-77
2022/03/28 06:40:03;;;;;;;19.57;9.75;;;;;;;4.33;41.06;101490.77;1433193;90;21544;-77
2022/03/28 06:42:32;;;;;;;23.27;11.73;;;;;;;4.46;40.42;101487.41;1434415;90;21354;-77
2022/03/28 06:44:59;;;;;;;20.90;9.07;;;;;;;4.63;41.37;101483.02;1451019;91;21504;-77
2022/03/28 06:47:26;;;;;;;39.63;12.80;;;;;;;4.80;40.97;101485.56;1443294;90;21739;-76
2022/03/28 06:49:52;;;;;;;18.97;9.40;;;;;;;4.96;40.26;101482.48;1433202;90;21702;-77
2022/03/28 06:52:18;;;;;;;21.33;9.07;;;;;;;5.13;39.21;101479.38;1435455;90;21462;-77
2022/03/28 06:54:44;;;;;;;16.23;9.77;;;;;;;5.28;38.97;101478.50;1444017;90;21530;-77
2022/03/28 06:57:10;;;;;;;18.33;9.17;;;;;;;5.47;38.87;101473.48;1436219;90;22178;-75
2022/03/28 06:59:36;;;;;;;21.67;10.73;;;;;;;5.65;38.14;101471.12;1442049;90;22622;-76
2022/03/28 07:02:03;;;;;;;26.93;10.77;;;;;;;5.81;38.20;101473.22;1440698;90;21608;-76
2022/03/28 07:04:29;;;;;;;24.30;12.10;;;;;;;5.94;36.03;101473.83;1435327;90;21697;-76
2022/03/28 07:06:55;;;;;;;24.87;11.13;;;;;;;6.10;37.55;101467.55;1447927;90;21923;-76
2022/03/28 07:09:21;;;;;;;24.17;12.10;;;;;;;6.30;37.17;101468.97;1436167;89;21493;-81
2022/03/28 07:11:47;;;;;;;23.97;10.07;;;;;;;6.51;37.12;101461.99;1457033;88;23331;-81
2022/03/28 07:14:13;;;;;;;28.37;12.90;;;;;;;6.70;36.41;101463.84;1445078;89;21391;-81
2022/03/28 07:16:39;;;;;;;27.03;13.30;;;;;;;7.12;36.95;101454.12;1452736;89;22247;-80
2022/03/28 07:19:05;;;;;;;29.10;14.73;;;;;;;7.12;36.95;101454.12;1454005;89;22082;-81
2022/03/28 07:21:31;;;;;;;30.60;14.90;;;;;;;7.39;36.36;101459.81;1444437;89;21642;-81
2022/03/28 07:23:57;;;;;;;29.03;14.70;;;;;;;7.61;36.39;101460.56;1444251;89;21332;-80
2022/03/28 07:26:23;;;;;;;45.70;12.40;;;;;;;7.83;35.57;101465.23;1399858;93;22310;-80
2022/03/28 07:28:49;;;;;;;44.40;12.83;;;;;;;8.20;34.03;101457.39;1413093;92;22334;-80
2022/03/28 07:31:17;;;;;;;23.47;11.40;;;;;;;8.20;34.03;101457.39;1443843;90;21908;-80
2022/03/28 07:33:45;;;;;;;22.63;10.17;;;;;;;8.47;33.73;101465.22;1452734;89;22180;-81
2022/03/28 07:36:11;;;;;;;22.30;9.07;;;;;;;8.70;33.76;101456.49;1439561;89;22135;-80
2022/03/28 07:38:37;;;;;;;23.37;10.60;;;;;;;8.88;29.88;101451.67;1448026;90;22270;-80
2022/03/28 07:41:05;;;;;;;26.73;12.97;;;;;;;9.14;32.37;101453.72;1460494;89;21309;-80
2022/03/28 07:43:32;;;;;;;25.40;9.90;;;;;;;9.38;31.32;101456.81;1447384;89;21339;-81
2022/03/28 07:45:58;;;;;;;23.43;8.87;;;;;;;9.59;30.90;101446.45;1449991;89;21487;-80
2022/03/28 07:48:30;;;;;;;23.80;9.13;;;;;;;9.81;29.61;101445.19;1446389;89;21360;-81
2022/03/28 07:50:53;;;;;;;23.17;8.37;;;;;;;10.06;29.70;101449.88;1452099;90;21530;-80
2022/03/28 07:53:19;;;;;;;44.07;7.80;;;;;;;10.28;29.17;101438.02;1467425;88;21346;-80
2022/03/28 07:55:45;;;;;;;17.77;7.10;;;;;;;10.52;26.08;101435.70;1461418;88;21412;-80
2022/03/28 07:58:12;;;;;;;12.20;4.93;;;;;;;10.74;27.37;101435.67;1458281;88;22439;-78
2022/03/28 08:00:40;;;;;;;8.73;5.20;;;;;;;10.92;24.71;101421.41;1464373;88;21925;-78
2022/03/28 08:03:06;;;;;;;14.47;4.80;;;;;;;11.11;25.26;101426.05;1464500;88;22283;-78
2022/03/28 08:05:33;;;;;;;135.03;10.77;;;;;;;11.24;23.13;101426.69;1463601;88;21537;-78
2022/03/28 08:07:58;;;;;;;13.87;4.00;;;;;;;11.40;23.25;101427.59;1466265;88;21339;-79
2022/03/28 08:10:25;;;;;;;32.57;5.40;;;;;;;11.51;21.61;101426.70;1437496;89;21309;-78
2022/03/28 08:12:52;;;;;;;11.03;4.67;;;;;;;11.65;22.53;101430.35;1444252;90;21429;-78
2022/03/28 08:15:21;;;;;;;8.13;4.90;;;;;;;11.75;22.10;101419.79;1454691;88;21808;-78
2022/03/28 08:17:47;;;;;;;122.90;9.13;;;;;;;11.88;22.34;101418.27;1462847;88;21331;-78
2022/03/28 08:20:14;;;;;;;18.57;4.77;;;;;;;12.03;22.58;101416.97;1467567;88;21441;-78
2022/03/28 08:22:46;;;;;;;15.97;5.53;;;;;;;12.14;20.20;101418.20;1464623;88;21412;-78
2022/03/28 08:25:13;;;;;;;20.70;6.63;;;;;;;12.14;20.22;101414.22;1460704;88;22491;-81
2022/03/28 08:27:39;;;;;;;9.87;5.80;;;;;;;12.23;21.75;101406.41;1438578;90;21556;-81
2022/03/28 08:30:06;;;;;;;37.00;5.77;;;;;;;12.32;22.05;101404.30;1468947;88;21397;-81
2022/03/28 08:32:33;;;;;;;101.70;8.63;;;;;;;12.45;21.61;101402.71;1437436;90;21368;-81
2022/03/28 08:34:59;;;;;;;10.87;4.67;;;;;;;12.64;21.81;101402.76;1459480;88;21397;-81
2022/03/28 08:37:27;;;;;;;5.20;2.80;;;;;;;12.78;19.81;101394.88;1465190;88;22291;-81
2022/03/28 08:39:58;;;;;;;15.13;4.53;;;;;;;12.83;18.30;101394.82;1458504;88;21463;-81
2022/03/28 08:42:23;;;;;;;19.70;4.67;;;;;;;12.96;19.44;101393.20;1363398;89;21302;-81
2022/03/28 08:44:49;;;;;;;9.20;4.73;;;;;;;13.06;19.28;101396.72;1494594;88;21309;-81
2022/03/28 08:47:22;;;;;;;10.90;4.90;;;;;;;13.18;18.13;101385.94;1454676;88;21397;-87
2022/03/28 08:49:51;;;;;;;9.53;3.73;;;;;;;13.33;19.06;101384.55;1441420;90;21354;-86
2022/03/28 08:52:17;;;;;;;14.53;4.90;;;;;;;13.46;18.81;101375.76;1464740;88;21531;-86
2022/03/28 08:54:44;;;;;;;6.67;3.73;;;;;;;13.62;18.88;101372.52;1465177;88;21390;-87
2022/03/28 08:57:15;;;;;;;16.97;4.13;;;;;;;13.73;17.80;101371.52;1440198;90;21436;-87
2022/03/28 08:59:41;;;;;;;18.73;4.72;;;;;;;13.86;18.95;101364.02;1460602;88;21631;-84
2022/03/28 09:02:30;;;;;;;9.90;3.87;;;;;;;14.04;17.69;101363.25;1446804;88;21626;-86
2022/03/28 09:04:57;;;;;;;11.57;3.60;;;;;;;14.08;18.04;101367.30;1439216;88;21376;-84
2022/03/28 09:07:30;;;;;;;9.60;2.40;;;;;;;14.16;18.45;101361.59;1488767;91;21437;-86
2022/03/28 09:09:59;;;;;;;7.87;3.50;;;;;;;14.27;17.96;101359.23;1501998;88;21257;-86
2022/03/28 09:12:27;;;;;;;8.27;2.67;;;;;;;14.37;17.55;101349.34;1385248;89;21280;-86
2022/03/28 09:15:04;;;;;;;14.70;2.97;;;;;;;14.46;18.09;101344.94;1529526;89;21200;-86
2022/03/28 09:17:31;;;;;;;5.77;2.67;;;;;;;14.62;18.08;101344.31;1401853;92;21497;-86
2022/03/28 09:20:03;;;;;;;3.90;2.53;;;;;;;14.70;17.78;101347.52;1385802;88;21406;-84
2022/03/28 09:22:36;;;;;;;6.43;2.37;;;;;;;14.81;17.71;101340.14;1383504;91;21398;-87
2022/03/28 09:25:10;;;;;;;8.33;2.87;;;;;;;14.92;18.05;101339.57;1545594;88;22249;-85
2022/03/28 09:27:40;;;;;;;7.70;2.63;;;;;;;15.04;18.17;101339.16;1545600;89;22263;-83
2022/03/28 09:30:13;;;;;;;7.43;3.57;;;;;;;15.18;18.52;101335.11;1453027;88;22196;-85
2022/03/28 09:32:48;;;;;;;10.07;2.57;;;;;;;15.24;18.72;101334.48;1545895;89;21362;-85
2022/03/28 09:35:26;;;;;;;44.80;5.33;;;;;;;15.38;18.31;101334.41;1546573;88;21250;-86
2022/03/28 09:38:05;;;;;;;5.97;2.70;;;;;;;15.44;17.78;101326.28;1413898;88;22752;-84
2022/03/28 09:40:49;;;;;;;4.33;2.97;;;;;;;15.42;18.69;101326.92;1383891;89;21325;-85
2022/03/28 09:43:20;;;;;;;8.93;2.87;;;;;;;15.50;19.12;101324.31;1449097;92;21318;-85
2022/03/28 09:45:50;;;;;;;4.37;3.30;;;;;;;15.62;18.91;101312.87;1387095;88;21311;-84
2022/03/28 09:48:19;;;;;;;10.45;4.10;;;;;;;15.62;19.05;101316.37;1384312;90;21265;-84
2022/03/28 09:51:01;;;;;;;6.60;3.13;;;;;;;15.72;19.30;101313.12;1444950;88;21383;-85
2022/03/28 09:53:35;;;;;;;13.67;3.40;;;;;;;15.89;19.67;101309.20;1465577;88;21434;-88
2022/03/28 09:56:06;;;;;;;4.57;3.23;;;;;;;15.97;19.36;101293.22;1462478;88;21413;-85
2022/03/28 09:58:56;;;;;;;12.73;3.53;;;;;;;15.96;19.71;101293.70;1461909;88;21502;-84
2022/03/28 10:01:35;;;;;;;13.40;3.20;;;;;;;16.07;19.80;101292.57;1461466;89;22471;-84
2022/03/28 10:04:09;;;;;;;9.93;3.67;;;;;;;16.06;20.05;101278.89;1466350;88;21441;-82
2022/03/28 10:06:33;;;;;;;10.70;3.23;;;;;;;16.12;19.89;101282.25;1377236;90;21383;-85
2022/03/28 10:08:59;;;;;;;9.10;4.00;;;;;;;16.21;19.84;101277.25;1436269;88;21383;-84
2022/03/28 10:11:27;;;;;;;11.00;4.10;;;;;;;16.35;20.87;101274.95;1465888;88;21456;-86
2022/03/28 10:13:55;;;;;;;11.50;3.70;;;;;;;16.50;20.58;101273.29;1467316;88;21442;-85
2022/03/28 10:16:21;;;;;;;10.40;4.50;;;;;;;16.60;20.46;101263.29;1466955;88;22248;-86
2022/03/28 10:18:50;;;;;;;765.40;54.70;;;;;;;16.70;20.30;101270.63;1422863;92;21420;-85
2022/03/28 10:21:37;;;;;;;8.27;4.03;;;;;;;16.75;20.42;101266.63;1389782;88;21338;-86
2022/03/28 10:24:22;;;;;;;8.40;3.67;;;;;;;16.81;20.06;101251.28;1447195;88;22218;-84
2022/03/28 10:26:54;;;;;;;11.97;4.07;;;;;;;16.93;20.58;101250.43;1501181;91;21377;-88
2022/03/28 10:29:22;;;;;;;11.83;4.73;;;;;;;17.01;21.71;101252.59;1552449;88;22130;-87
2022/03/28 10:32:08;;;;;;;13.03;5.00;;;;;;;17.02;21.36;101250.75;1404361;88;22159;-87
2022/03/28 10:34:53;;;;;;;14.50;5.30;;;;;;;16.96;21.94;101248.25;1532687;88;21362;-87
2022/03/28 10:37:37;;;;;;;16.50;6.07;;;;;;;17.02;21.52;101240.05;1535800;88;22691;-87
2022/03/28 10:40:28;;;;;;;13.80;4.83;;;;;;;16.92;21.85;101237.57;1492950;88;21397;-88
2022/03/28 10:43:13;;;;;;;27.93;5.40;;;;;;;16.97;21.73;101229.85;1466251;88;21308;-87
2022/03/28 10:45:50;;;;;;;11.17;4.80;;;;;;;17.02;22.20;101229.36;1470448;88;21472;-86
2022/03/28 10:48:19;;;;;;;12.00;4.97;;;;;;;16.91;22.03;101223.85;1453628;88;21457;-87
2022/03/28 10:50:51;;;;;;;13.03;5.55;;;;;;;17.05;21.42;101219.14;1420153;91;21509;-89
2022/03/28 10:53:39;;;;;;;10.47;4.63;;;;;;;17.13;21.80;101212.44;1471778;88;21457;-88
2022/03/28 10:56:15;;;;;;;10.10;4.57;;;;;;;17.34;21.39;101204.34;1425598;92;21451;-82
2022/03/28 10:58:54;;;;;;;9.77;5.47;;;;;;;17.30;20.58;101201.70;1402439;91;21428;-87
2022/03/28 11:01:27;;;;;;;10.20;5.20;;;;;;;17.34;20.49;101196.32;1475486;88;22283;-85
2022/03/28 11:04:07;;;;;;;17.87;4.97;;;;;;;17.39;20.30;101196.64;1466170;88;21486;-84
2022/03/28 11:07:06;;;;;;;10.53;5.22;;;;;;;17.41;21.67;101185.78;1470898;88;21501;-85
2022/03/28 11:10:02;;;;;;;10.20;5.63;;;;;;;17.53;20.97;101166.98;1467210;87;21486;-85
2022/03/28 11:12:41;;;;;;;14.27;4.33;;;;;;;17.53;20.81;101161.63;1464515;88;21435;-87
2022/03/28 11:15:21;;;;;;;7.40;4.53;;;;;;;17.66;21.13;101135.61;1475228;88;21515;-86
2022/03/28 11:17:57;;;;;;;12.73;5.83;;;;;;;17.74;20.89;101156.48;1422197;91;22380;-87
2022/03/28 11:20:27;;;;;;;13.33;5.20;;;;;;;17.82;20.93;101148.94;1468579;88;21383;-89
2022/03/28 11:23:10;;;;;;;7.55;5.03;;;;;;;17.82;20.52;101139.57;1468801;88;21376;-87
2022/03/28 11:25:46;;;;;;;25.30;6.90;;;;;;;17.94;20.62;101140.81;1443596;89;21375;-88